createdAt,value
2023-12-01T00:01:46.665Z,32.10
2023-12-01T00:04:19.316Z,31.90
2023-12-01T00:06:52.007Z,32.30
2023-12-01T00:09:25.010Z,31.10
2023-12-01T00:11:57.394Z,32.40
2023-12-01T00:14:29.683Z,30.10
2023-12-01T00:17:03.268Z,30.80
2023-12-01T00:19:36.057Z,30.30
2023-12-01T00:22:08.975Z,31.20
2023-12-01T00:24:41.444Z,30.30
2023-12-01T00:27:14.126Z,31.90
2023-12-01T00:29:46.584Z,30.80
2023-12-01T00:32:19.046Z,30.50
2023-12-01T00:34:51.590Z,33.60
2023-12-01T00:37:23.899Z,32.70
2023-12-01T00:39:56.341Z,31.80
2023-12-01T00:42:28.767Z,32.20
2023-12-01T00:45:02.265Z,32.20
2023-12-01T00:47:34.875Z,32.10
2023-12-01T00:50:09.162Z,32.50
2023-12-01T00:52:41.661Z,30.80
2023-12-01T00:55:14.196Z,33.10
2023-12-01T00:57:47.080Z,32.20
2023-12-01T01:00:20.900Z,32.80
2023-12-01T01:02:53.422Z,31.70
2023-12-01T01:05:26.308Z,32.40
2023-12-01T01:07:58.777Z,31.30
2023-12-01T01:10:31.166Z,31.90
2023-12-01T01:13:03.704Z,32.10
2023-12-01T01:15:36.258Z,31.90
2023-12-01T01:18:09.031Z,31.30
2023-12-01T01:20:41.485Z,31.50
2023-12-01T01:23:13.912Z,30.90
2023-12-01T01:25:46.616Z,30.60
2023-12-01T01:28:20.093Z,31.60
2023-12-01T01:30:52.975Z,31.70
2023-12-01T01:33:25.374Z,32.60
2023-12-01T01:35:57.716Z,31.50
2023-12-01T01:38:31.075Z,31.70
2023-12-01T01:41:03.619Z,31.90
2023-12-01T01:43:36.119Z,31.60
2023-12-01T01:46:12.513Z,32.10
2023-12-01T01:48:45.353Z,32.30
2023-12-01T01:51:18.414Z,31.60
2023-12-01T01:53:51.763Z,30.10
2023-12-01T01:56:25.161Z,32.30
2023-12-01T01:58:57.624Z,30.20
2023-12-01T02:01:31.255Z,32.20
2023-12-01T02:04:05.071Z,31.10
2023-12-01T02:06:38.492Z,32.10
2023-12-01T02:09:11.699Z,30.50
2023-12-01T02:11:44.702Z,30.50
2023-12-01T02:14:17.907Z,24.20
2023-12-01T02:16:50.997Z,29.00
2023-12-01T02:19:23.512Z,28.10
2023-12-01T02:21:56.669Z,20.50
2023-12-01T02:24:29.385Z,21.00
2023-12-01T02:27:01.834Z,19.60
2023-12-01T02:29:34.250Z,20.00
2023-12-01T02:32:09.373Z,21.70
2023-12-01T02:34:46.802Z,23.70
2023-12-01T02:37:19.202Z,24.20
2023-12-01T02:39:52.260Z,23.20
2023-12-01T02:42:24.674Z,22.60
2023-12-01T02:44:57.192Z,25.20
2023-12-01T02:47:29.569Z,23.20
2023-12-01T02:50:01.901Z,24.90
2023-12-01T02:52:34.268Z,24.50
2023-12-01T02:55:09.236Z,24.50
2023-12-01T02:57:42.270Z,23.30
2023-12-01T03:00:16.111Z,24.10
2023-12-01T03:02:49.313Z,24.60
2023-12-01T03:05:22.619Z,23.00
2023-12-01T03:07:55.065Z,25.00
2023-12-01T03:10:27.562Z,25.30
2023-12-01T03:13:00.033Z,25.10
2023-12-01T03:15:32.821Z,25.20
2023-12-01T03:18:05.311Z,24.70
2023-12-01T03:20:37.725Z,26.70
2023-12-01T03:23:10.225Z,26.40
2023-12-01T03:25:42.656Z,26.60
2023-12-01T03:28:16.403Z,25.20
2023-12-01T03:30:49.010Z,28.30
2023-12-01T03:33:21.370Z,29.40
2023-12-01T03:35:53.832Z,27.80
2023-12-01T03:38:26.454Z,28.30
2023-12-01T03:41:01.464Z,27.40
2023-12-01T03:43:34.644Z,27.20
2023-12-01T03:46:07.907Z,26.20
2023-12-01T03:48:40.347Z,26.90
2023-12-01T03:51:12.936Z,26.00
2023-12-01T03:53:45.275Z,26.70
2023-12-01T03:56:17.783Z,27.00
2023-12-01T03:58:50.386Z,25.80
2023-12-01T04:01:22.822Z,24.70
2023-12-01T04:03:55.840Z,25.60
2023-12-01T04:06:28.323Z,25.00
2023-12-01T04:09:06.488Z,23.70
2023-12-01T04:11:39.847Z,25.40
2023-12-01T04:14:12.289Z,25.20
2023-12-01T04:16:44.750Z,24.40
2023-12-01T04:19:17.124Z,24.00
2023-12-01T04:21:49.399Z,24.70
2023-12-01T04:24:22.617Z,23.70
2023-12-01T04:26:55.092Z,22.90
2023-12-01T04:29:29.285Z,23.30
2023-12-01T04:32:02.645Z,23.30
2023-12-01T04:34:35.312Z,23.70
2023-12-01T04:37:10.949Z,23.90
2023-12-01T04:39:43.582Z,23.80
2023-12-01T04:42:17.039Z,21.40
2023-12-01T04:44:50.896Z,21.10
2023-12-01T04:47:24.519Z,21.40
2023-12-01T04:49:57.091Z,19.20
2023-12-01T04:52:29.643Z,19.90
2023-12-01T04:55:02.210Z,20.70
2023-12-01T04:57:34.541Z,20.50
2023-12-01T05:00:20.333Z,19.40
2023-12-01T05:02:54.024Z,21.10
2023-12-01T05:05:28.249Z,20.10
2023-12-01T05:08:02.433Z,19.30
2023-12-01T05:10:36.264Z,19.20
2023-12-01T05:13:10.221Z,18.00
2023-12-01T05:15:43.366Z,19.40
2023-12-01T05:18:16.020Z,18.50
2023-12-01T05:20:49.581Z,17.90
2023-12-01T05:23:22.358Z,16.80
2023-12-01T05:25:54.796Z,16.70
2023-12-01T05:28:27.342Z,16.70
2023-12-01T05:30:59.979Z,16.10
2023-12-01T05:33:38.059Z,15.30
2023-12-01T05:36:15.570Z,15.90
2023-12-01T05:38:48.131Z,15.10
2023-12-01T05:41:20.638Z,14.20
2023-12-01T05:43:53.041Z,14.40
2023-12-01T05:46:25.556Z,14.30
2023-12-01T05:48:58.971Z,13.90
2023-12-01T05:51:34.507Z,13.50
2023-12-01T05:54:07.146Z,13.30
2023-12-01T05:56:39.609Z,12.90
2023-12-01T05:59:12.046Z,13.20
2023-12-01T06:01:44.621Z,12.30
2023-12-01T06:04:17.163Z,12.10
2023-12-01T06:06:49.705Z,12.90
2023-12-01T06:09:22.772Z,12.30
2023-12-01T06:11:55.333Z,12.40
2023-12-01T06:14:27.764Z,13.10
2023-12-01T06:17:00.439Z,13.20
2023-12-01T06:19:34.439Z,13.50
2023-12-01T06:22:07.328Z,13.50
2023-12-01T06:24:39.832Z,13.90
2023-12-01T06:27:13.377Z,14.60
2023-12-01T06:29:45.993Z,12.80
2023-12-01T06:32:18.452Z,13.00
2023-12-01T06:34:50.927Z,14.90
2023-12-01T06:37:23.354Z,14.00
2023-12-01T06:39:55.795Z,14.40
2023-12-01T06:42:28.237Z,14.00
2023-12-01T06:45:00.524Z,13.70
2023-12-01T06:47:33.565Z,13.00
2023-12-01T06:50:07.226Z,13.30
2023-12-01T06:52:40.348Z,13.40
2023-12-01T06:55:13.641Z,14.10
2023-12-01T06:57:49.777Z,13.20
2023-12-01T07:00:34.931Z,14.10
2023-12-01T07:03:10.521Z,14.90
2023-12-01T07:05:46.671Z,14.00
2023-12-01T07:08:19.267Z,12.90
2023-12-01T07:10:53.214Z,13.10
2023-12-01T07:13:26.035Z,12.30
2023-12-01T07:15:58.784Z,12.50
2023-12-01T07:18:31.219Z,12.60
2023-12-01T07:21:07.767Z,12.00
2023-12-01T07:23:42.840Z,11.70
2023-12-01T07:26:16.784Z,11.00
2023-12-01T07:28:49.308Z,10.20
2023-12-01T07:31:21.882Z,11.20
2023-12-01T07:33:56.771Z,10.60
2023-12-01T07:36:35.896Z,11.70
2023-12-01T07:39:14.608Z,11.00
2023-12-01T07:41:49.541Z,10.60
2023-12-01T07:44:24.525Z,11.40
2023-12-01T07:46:57.150Z,10.50
2023-12-01T07:49:32.082Z,10.40
2023-12-01T07:52:08.112Z,10.40
2023-12-01T07:54:42.631Z,10.80
2023-12-01T07:57:15.424Z,10.00
2023-12-01T07:59:47.974Z,10.80
2023-12-01T08:02:20.611Z,8.90
2023-12-01T08:04:53.265Z,10.00
2023-12-01T08:07:25.802Z,10.40
2023-12-01T08:09:58.488Z,10.40
2023-12-01T08:12:31.048Z,11.20
2023-12-01T08:15:03.597Z,9.40
2023-12-01T08:17:36.212Z,9.00
2023-12-01T08:20:11.821Z,9.30
2023-12-01T08:22:47.477Z,9.40
2023-12-01T08:25:23.933Z,9.40
2023-12-01T08:27:56.512Z,10.80
2023-12-01T08:30:29.682Z,10.90
2023-12-01T08:33:02.589Z,11.60
2023-12-01T08:35:35.241Z,11.60
2023-12-01T08:38:07.672Z,11.00
2023-12-01T08:40:43.548Z,11.60
2023-12-01T08:43:17.386Z,11.50
2023-12-01T08:45:49.849Z,12.30
2023-12-01T08:48:22.413Z,12.20
2023-12-01T08:50:54.912Z,13.50
2023-12-01T08:53:27.485Z,12.80
2023-12-01T08:56:01.602Z,12.80
2023-12-01T08:58:38.048Z,12.90
2023-12-01T09:01:10.947Z,12.60
2023-12-01T09:03:43.468Z,12.40
2023-12-01T09:06:16.453Z,12.90
2023-12-01T09:08:48.971Z,13.30
2023-12-01T09:11:21.656Z,12.90
2023-12-01T09:13:54.628Z,13.20
2023-12-01T09:16:31.316Z,13.30
2023-12-01T09:19:06.025Z,13.40
2023-12-01T09:21:40.004Z,13.10
2023-12-01T09:24:12.562Z,12.90
2023-12-01T09:26:45.048Z,13.40
2023-12-01T09:29:17.585Z,15.60
2023-12-01T09:31:51.083Z,15.50
2023-12-01T09:34:23.576Z,14.10
2023-12-01T09:36:58.604Z,14.00
2023-12-01T09:39:31.449Z,13.50
2023-12-01T09:42:09.427Z,13.00
2023-12-01T09:44:42.137Z,12.90
2023-12-01T09:47:18.640Z,12.20
2023-12-01T09:49:53.998Z,12.50
2023-12-01T09:52:26.581Z,11.60
2023-12-01T09:55:07.745Z,12.10
2023-12-01T09:57:44.182Z,12.20
2023-12-01T10:00:18.397Z,13.40
2023-12-01T10:02:51.187Z,13.30
2023-12-01T10:05:23.812Z,12.50
2023-12-01T10:07:57.335Z,13.50
2023-12-01T10:10:30.967Z,12.80
2023-12-01T10:13:06.266Z,13.40
2023-12-01T10:15:40.080Z,12.40
2023-12-01T10:18:20.416Z,12.00
2023-12-01T10:21:05.213Z,12.60
2023-12-01T10:23:38.990Z,12.60
2023-12-01T10:26:13.281Z,13.00
2023-12-01T10:28:46.016Z,13.50
2023-12-01T10:31:20.405Z,13.30
2023-12-01T10:33:53.374Z,14.80
2023-12-01T10:36:26.082Z,15.40
2023-12-01T10:39:03.113Z,15.50
2023-12-01T10:41:36.894Z,15.10
2023-12-01T10:44:10.504Z,14.90
2023-12-01T10:46:46.523Z,14.30
2023-12-01T10:49:21.210Z,13.40
2023-12-01T10:51:55.281Z,14.90
2023-12-01T10:54:31.496Z,17.30
2023-12-01T10:57:24.604Z,13.20
2023-12-01T10:59:59.896Z,13.70
2023-12-01T11:02:40.984Z,13.50
2023-12-01T11:05:15.195Z,13.20
2023-12-01T11:08:03.401Z,14.30
2023-12-01T11:10:43.584Z,12.90
2023-12-01T11:13:29.614Z,13.00
2023-12-01T11:16:02.888Z,12.50
2023-12-01T11:18:35.647Z,13.60
2023-12-01T11:21:10.073Z,12.80
2023-12-01T11:23:42.764Z,12.40
2023-12-01T11:26:15.569Z,11.90
2023-12-01T11:28:57.297Z,12.20
2023-12-01T11:31:38.452Z,12.30
2023-12-01T11:34:18.255Z,12.30
2023-12-01T11:36:54.335Z,11.20
2023-12-01T11:39:38.717Z,11.20
2023-12-01T11:42:21.673Z,11.50
2023-12-01T11:45:02.028Z,11.30
2023-12-01T11:47:41.218Z,10.60
2023-12-01T11:50:18.015Z,11.10
2023-12-01T11:52:56.600Z,10.50
2023-12-01T11:55:36.226Z,11.00
2023-12-01T11:58:09.840Z,11.00
2023-12-01T12:00:47.272Z,10.80
2023-12-01T12:03:27.087Z,10.70
2023-12-01T12:06:09.637Z,10.50
2023-12-01T12:08:49.038Z,10.30
2023-12-01T12:11:27.052Z,11.00
2023-12-01T12:14:05.942Z,11.20
2023-12-01T12:19:33.639Z,10.20
2023-12-01T12:22:06.984Z,10.90
2023-12-01T12:24:50.193Z,10.40
2023-12-01T12:27:25.216Z,10.10
2023-12-01T12:30:05.293Z,10.60
2023-12-01T12:32:45.820Z,10.80
2023-12-01T12:35:24.352Z,11.40
2023-12-01T12:37:58.063Z,10.90
2023-12-01T12:40:36.694Z,11.10
2023-12-01T12:45:49.840Z,9.90
2023-12-01T12:48:28.527Z,10.20
2023-12-01T12:51:16.930Z,10.60
2023-12-01T12:53:51.981Z,9.70
2023-12-01T12:56:37.806Z,9.50
2023-12-01T12:59:22.944Z,9.70
2023-12-01T13:02:16.605Z,9.20
2023-12-01T13:04:52.712Z,8.80
2023-12-01T13:07:27.531Z,9.00
2023-12-01T13:10:03.033Z,8.70
2023-12-01T13:12:51.284Z,9.10
2023-12-01T13:15:35.553Z,9.50
2023-12-01T13:18:14.956Z,9.70
2023-12-01T13:20:59.470Z,9.50
2023-12-01T13:23:37.445Z,9.00
2023-12-01T13:26:16.132Z,9.30
2023-12-01T13:28:48.637Z,10.40
2023-12-01T13:31:31.380Z,10.20
2023-12-01T13:34:06.559Z,10.10
2023-12-01T13:36:43.325Z,10.80
2023-12-01T13:39:21.359Z,10.30
2023-12-01T13:42:09.109Z,10.40
2023-12-01T13:44:55.144Z,10.40
2023-12-01T13:47:33.686Z,10.20
2023-12-01T13:50:19.923Z,10.60
2023-12-01T13:52:57.175Z,10.20
2023-12-01T13:55:31.066Z,10.40
2023-12-01T13:58:08.918Z,10.30
2023-12-01T14:00:50.421Z,10.80
2023-12-01T14:03:29.890Z,11.20
2023-12-01T14:06:16.588Z,11.00
2023-12-01T14:08:51.642Z,10.70
2023-12-01T14:11:26.506Z,10.40
2023-12-01T14:14:01.686Z,11.90
2023-12-01T14:16:42.885Z,10.90
2023-12-01T14:19:20.643Z,11.20
2023-12-01T14:21:55.644Z,11.80
2023-12-01T14:24:33.065Z,11.60
2023-12-01T14:27:09.862Z,11.90
2023-12-01T14:29:49.042Z,11.70
2023-12-01T14:32:26.337Z,11.20
2023-12-01T14:35:04.572Z,12.00
2023-12-01T14:37:43.175Z,11.00
2023-12-01T14:40:21.060Z,11.40
2023-12-01T14:42:55.780Z,11.20
2023-12-01T14:45:30.488Z,11.40
2023-12-01T14:48:09.642Z,11.70
2023-12-01T14:50:51.462Z,11.90
2023-12-01T14:53:27.419Z,11.40
2023-12-01T14:56:08.608Z,11.50
2023-12-01T14:58:42.180Z,11.80
2023-12-01T15:01:16.251Z,11.80
2023-12-01T15:08:25.271Z,11.10
2023-12-01T15:11:07.225Z,11.90
2023-12-01T15:13:39.798Z,11.90
2023-12-01T15:16:20.525Z,12.30
2023-12-01T15:18:53.120Z,12.60
2023-12-01T15:21:25.902Z,11.80
2023-12-01T15:23:58.703Z,11.80
2023-12-01T15:26:31.267Z,11.80
2023-12-01T15:29:04.349Z,12.90
2023-12-01T15:31:36.754Z,12.40
2023-12-01T15:34:11.881Z,12.50
2023-12-01T15:36:44.359Z,14.20
2023-12-01T15:39:17.121Z,14.70
2023-12-01T15:41:49.915Z,14.20
2023-12-01T15:44:22.335Z,14.70
2023-12-01T15:46:55.552Z,15.00
2023-12-01T15:49:28.378Z,16.90
2023-12-01T15:52:04.432Z,16.20
2023-12-01T15:54:40.043Z,15.20
2023-12-01T15:57:13.936Z,15.10
2023-12-01T15:59:47.071Z,15.30
2023-12-01T16:02:20.278Z,17.40
2023-12-01T16:04:52.951Z,17.30
2023-12-01T16:07:25.410Z,17.90
2023-12-01T16:09:57.829Z,18.50
2023-12-01T16:12:30.229Z,18.30
2023-12-01T16:15:12.902Z,19.90
2023-12-01T16:17:50.457Z,19.40
2023-12-01T16:20:23.175Z,21.40
2023-12-01T16:22:56.436Z,21.60
2023-12-01T16:25:29.435Z,22.50
2023-12-01T16:28:01.931Z,23.20
2023-12-01T16:30:34.694Z,22.50
2023-12-01T16:33:07.515Z,24.30
2023-12-01T16:35:46.438Z,23.80
2023-12-01T16:38:20.308Z,25.20
2023-12-01T16:40:55.860Z,24.30
2023-12-01T16:43:34.163Z,23.80
2023-12-01T16:46:14.727Z,24.00
2023-12-01T16:48:57.247Z,24.30
2023-12-01T16:51:32.897Z,24.30
2023-12-01T16:54:11.110Z,24.30
2023-12-01T16:56:52.032Z,23.80
2023-12-01T16:59:36.824Z,23.80
2023-12-01T17:02:14.533Z,25.30
2023-12-01T17:04:53.093Z,27.00
2023-12-01T17:07:30.336Z,26.10
2023-12-01T17:10:07.202Z,26.10
2023-12-01T17:12:43.522Z,26.80
2023-12-01T17:15:26.119Z,27.80
2023-12-01T17:18:06.339Z,27.00
2023-12-01T17:20:47.649Z,27.00
2023-12-01T17:23:25.110Z,26.40
2023-12-01T17:26:05.498Z,26.40
2023-12-01T17:28:41.188Z,27.20
2023-12-01T17:31:26.771Z,26.90
2023-12-01T17:34:06.790Z,26.30
2023-12-01T17:36:50.733Z,26.30
2023-12-01T17:39:31.667Z,26.20
2023-12-01T17:42:09.419Z,27.40
2023-12-01T17:44:47.509Z,27.20
2023-12-01T17:47:23.316Z,27.40
2023-12-01T17:50:00.308Z,25.90
2023-12-01T17:52:40.535Z,27.00
2023-12-01T17:55:20.342Z,26.40
2023-12-01T17:58:00.317Z,25.20
2023-12-01T18:00:38.601Z,26.30
2023-12-01T18:03:21.233Z,22.20
2023-12-01T18:06:02.198Z,21.90
2023-12-01T18:08:42.714Z,22.40
2023-12-01T18:11:19.899Z,23.80
2023-12-01T18:13:55.844Z,22.80
2023-12-01T18:16:30.741Z,22.30
2023-12-01T18:19:04.190Z,23.10
2023-12-01T18:21:37.338Z,23.80
2023-12-01T18:24:10.318Z,23.40
2023-12-01T18:26:44.660Z,22.90
2023-12-01T18:29:17.512Z,23.90
2023-12-01T18:31:50.143Z,23.90
2023-12-01T18:34:22.869Z,23.70
2023-12-01T18:36:57.912Z,23.90
2023-12-01T18:39:31.351Z,23.40
2023-12-01T18:42:04.159Z,24.10
2023-12-01T18:44:36.843Z,25.00
2023-12-01T18:47:09.860Z,24.10
2023-12-01T18:49:42.467Z,25.40
2023-12-01T18:52:15.140Z,23.50
2023-12-01T18:54:47.691Z,24.10
2023-12-01T18:57:20.190Z,24.70
2023-12-01T18:59:53.064Z,25.20
2023-12-01T19:02:25.605Z,24.70
2023-12-01T19:04:58.333Z,23.70
2023-12-01T19:07:33.126Z,24.20
2023-12-01T19:10:06.373Z,25.00
2023-12-01T19:12:38.905Z,24.80
2023-12-01T19:15:14.118Z,24.60
2023-12-01T19:17:46.783Z,24.20
2023-12-01T19:20:19.931Z,24.20
2023-12-01T19:22:52.409Z,26.30
2023-12-01T19:25:24.991Z,25.40
2023-12-01T19:27:58.045Z,25.90
2023-12-01T19:30:30.801Z,25.60
2023-12-01T19:33:04.793Z,26.10
2023-12-01T19:35:37.297Z,27.70
2023-12-01T19:38:10.624Z,26.90
2023-12-01T19:40:43.095Z,27.70
2023-12-01T19:43:15.750Z,28.30
2023-12-01T19:45:49.331Z,28.80
2023-12-01T19:48:25.096Z,28.90
2023-12-01T19:50:59.036Z,29.40
2023-12-01T19:53:34.922Z,28.40
2023-12-01T19:56:09.928Z,28.50
2023-12-01T19:58:42.501Z,27.20
2023-12-01T20:01:15.247Z,27.50
2023-12-01T20:03:47.712Z,27.20
2023-12-01T20:06:20.503Z,27.40
2023-12-01T20:08:53.225Z,27.70
2023-12-01T20:11:28.333Z,26.80
2023-12-01T20:14:00.985Z,27.10
2023-12-01T20:16:34.197Z,27.50
2023-12-01T20:19:07.100Z,28.00
2023-12-01T20:21:40.459Z,28.70
2023-12-01T20:24:13.114Z,27.80
2023-12-01T20:26:48.029Z,28.90
2023-12-01T20:29:23.473Z,28.70
2023-12-01T20:31:57.235Z,28.60
2023-12-01T20:34:31.458Z,27.60
2023-12-01T20:37:04.279Z,27.90
2023-12-01T20:39:39.910Z,28.30
2023-12-01T20:42:17.910Z,27.90
2023-12-01T20:44:54.405Z,26.80
2023-12-01T20:47:27.394Z,27.70
2023-12-01T20:50:01.125Z,27.70
2023-12-01T20:52:34.401Z,27.80
2023-12-01T20:55:09.874Z,30.10
2023-12-01T21:00:29.521Z,31.00
2023-12-01T21:00:50.494Z,29.90
2023-12-01T21:03:25.807Z,29.60
2023-12-01T21:05:58.624Z,28.20
2023-12-01T21:08:31.570Z,29.50
2023-12-01T21:11:06.701Z,19.20
2023-12-01T21:13:41.097Z,18.00
2023-12-01T21:16:16.388Z,22.10
2023-12-01T21:19:19.394Z,23.80
2023-12-01T21:21:55.874Z,26.20
2023-12-01T21:24:31.073Z,26.50
2023-12-01T21:27:03.745Z,26.90
2023-12-01T21:29:39.548Z,27.70
2023-12-01T21:32:31.271Z,27.00
2023-12-01T21:35:25.400Z,26.60
2023-12-01T21:38:02.092Z,26.90
2023-12-01T21:40:37.269Z,27.00
2023-12-01T21:44:49.275Z,27.30
2023-12-01T21:47:02.560Z,27.20
2023-12-01T21:49:44.174Z,28.30
2023-12-01T21:52:25.819Z,27.50
2023-12-01T21:55:06.614Z,26.80
2023-12-01T21:57:42.638Z,27.50
2023-12-01T22:00:16.918Z,27.10
2023-12-01T22:02:49.828Z,28.50
2023-12-01T22:05:25.196Z,29.50
2023-12-01T22:07:58.332Z,30.70
2023-12-01T22:10:30.949Z,29.10
2023-12-01T22:13:04.302Z,27.90
2023-12-01T22:15:37.136Z,27.70
2023-12-01T22:18:10.033Z,27.50
2023-12-01T22:20:42.732Z,28.90
2023-12-01T22:23:15.462Z,27.30
2023-12-01T22:25:47.965Z,26.90
2023-12-01T22:28:20.592Z,29.20
2023-12-01T22:30:54.178Z,27.10
2023-12-01T22:33:26.847Z,29.30
2023-12-01T22:36:03.018Z,29.20
2023-12-01T22:38:40.978Z,28.80
2023-12-01T22:41:14.896Z,30.10
2023-12-01T22:43:49.099Z,29.60
2023-12-01T22:46:21.706Z,28.90
2023-12-01T22:48:54.281Z,28.80
2023-12-01T22:51:28.952Z,29.30
2023-12-01T22:54:04.809Z,28.00
2023-12-01T22:56:37.467Z,27.60
2023-12-01T22:59:12.163Z,28.50
2023-12-01T23:01:45.269Z,29.80
2023-12-01T23:04:20.170Z,29.20
2023-12-01T23:06:54.843Z,30.40
2023-12-01T23:09:27.450Z,29.10
2023-12-01T23:12:01.835Z,30.10
2023-12-01T23:14:36.980Z,28.20
2023-12-01T23:17:09.765Z,28.40
2023-12-01T23:19:50.014Z,28.60
2023-12-01T23:22:26.048Z,30.80
2023-12-01T23:25:10.609Z,29.40
2023-12-01T23:27:46.315Z,34.30
2023-12-01T23:30:25.496Z,30.40
2023-12-01T23:32:59.620Z,32.10
2023-12-01T23:35:32.401Z,33.00
2023-12-01T23:38:08.010Z,32.50
2023-12-01T23:40:44.667Z,30.20
2023-12-01T23:43:19.462Z,31.60
2023-12-01T23:45:53.024Z,30.00
2023-12-01T23:48:30.783Z,29.50
2023-12-01T23:51:04.310Z,29.80
2023-12-01T23:53:37.551Z,34.50
2023-12-01T23:56:16.678Z,36.40
2023-12-01T23:58:54.020Z,34.10
